This is the latest recevied weather packets stored in our database for station/object WA7CUG. If no packets are shown the sender has not sent any weather packets the latest 10 day(s).
| Time | Temp. | Humidity | Pressure | Rain* | Wind** | Luminosity | Snow |
|---|---|---|---|---|---|---|---|
| 1777254590 | 18.33° C | 26% | 1008.8 hPa | 0 mm | - | 99 W/m² | - |
| 1777254285 | 18.33° C | 25% | 1008.9 hPa | 0 mm | - | 104 W/m² | - |
| 1777253981 | 18.89° C | 22% | 1008.9 hPa | 0 mm | - | 113 W/m² | - |
| 1777253677 | 18.89° C | 21% | 1008.9 hPa | 0 mm | - | 128 W/m² | - |
| 1777253375 | 18.33° C | 21% | 1008.8 hPa | 0 mm | - | 142 W/m² | - |
| 1777253072 | 18.33° C | 20% | 1008.9 hPa | 0 mm | - | 159 W/m² | - |
| 1777252770 | 18.89° C | 20% | 1009 hPa | 0 mm | - | 176 W/m² | - |
| 1777252467 | 18.33° C | 19% | 1008.8 hPa | 0 mm | - | 190 W/m² | - |
| 1777252164 | 18.33° C | 20% | 1008.7 hPa | 0 mm | - | 205 W/m² | - |
| 1777251861 | 18.33° C | 20% | 1008.8 hPa | 0 mm | - | 218 W/m² | - |
| 1777251558 | 18.33° C | 20% | 1008.7 hPa | 0 mm | - | 224 W/m² | - |
| 1777251255 | 18.33° C | 20% | 1008.7 hPa | 0 mm | - | 234 W/m² | - |
| 1777250950 | 18.33° C | 20% | 1008.7 hPa | 0 mm | - | 247 W/m² | - |
| 1777250647 | 18.33° C | 22% | 1008.9 hPa | 0 mm | - | 261 W/m² | - |
| 1777250343 | 18.33° C | 20% | 1008.8 hPa | 0 mm | - | 270 W/m² | - |
| 1777250038 | 18.33° C | 21% | 1008.8 hPa | 0 mm | - | 285 W/m² | - |
| 1777249730 | 18.33° C | 23% | 1008.6 hPa | 0 mm | - | 290 W/m² | - |
| 1777249425 | 18.89° C | 21% | 1008.7 hPa | 0 mm | - | 305 W/m² | - |
| 1777249124 | 18.89° C | 22% | 1008.4 hPa | 0 mm | - | 318 W/m² | - |
| 1777248819 | 18.33° C | 23% | 1008.6 hPa | 0 mm | - | 341 W/m² | - |
| 1777248516 | 19.44° C | 20% | 1008.5 hPa | 0 mm | - | 362 W/m² | - |
| 1777248213 | 19.44° C | 19% | 1008.5 hPa | 0 mm | - | 388 W/m² | - |
| 1777247912 | 18.89° C | 21% | 1008.5 hPa | 0 mm | - | 399 W/m² | - |
| 1777247608 | 19.44° C | 20% | 1008.4 hPa | 0 mm | - | 409 W/m² | - |
| 1777247306 | 20° C | 18% | 1008.5 hPa | 0 mm | - | 429 W/m² | - |
* Rain latest hour (hover to see other rain measurements)
** Current wind speed in m/s (hover to see current wind gust speed)